Latest Weather Observations for Hindmarsh Island

IDS60901

Issued at 11:21 pm CST Tuesday 24 May 2016 (issued every 10 minutes, with the page automatically refreshed every 10 minutes)

About weather observations | Map of Adelaide area stations | Latest observations for Adelaide area | Other Formats
Station Details ID: 023894 Name: HINDMARSH ISLAND AWS Lat: -35.52 Lon: 138.82 Height: 11.0 m
Data from the previous 72 hours. | See also: Recent months at Hindmarsh Island
Date/Time
CST
Tmp

°C
App
Tmp
°C
Dew
Point
°C
Rel
Hum
%
Delta-T

°C
Wind Press
QNH
hPa
Press
MSL
hPa
Rain
since
9 am
mm
Dir
 
Spd
km/h
Gust
km/h
Spd
kts
Gust
kts
24/11:00pm 10.5 5.8 5.3 70 2.4 NE 19 20 10 11 1013.8 - 0.0
24/10:30pm 11.9 7.5 6.4 69 2.6 NNE 19 24 10 13 1014.4 - 0.0
24/10:00pm 10.6 7.6 5.8 72 2.2 NE 11 15 6 8 1015.0 - 0.0
24/09:30pm 11.5 7.7 7.4 76 2.0 NNE 17 19 9 10 1015.2 - 0.0
24/09:00pm 11.3 9.5 7.0 75 2.0 ENE 6 9 3 5 1015.7 1015.8 0.0
24/08:30pm 12.5 11.1 7.4 71 2.5 N 4 6 2 3 1016.1 - 0.0
24/08:00pm 13.5 10.9 7.7 68 2.9 N 11 13 6 7 1016.4 - 0.0
24/07:30pm 13.9 11.2 7.4 65 3.2 N 11 11 6 6 1016.4 - 0.0
24/07:00pm 15.0 11.9 7.3 60 3.8 N 13 13 7 7 1016.2 - 0.0
24/06:30pm 15.3 12.9 7.1 58 4.0 N 9 9 5 5 1016.4 - 0.0
24/06:00pm 15.4 13.0 7.2 58 4.0 NNE 9 15 5 8 1016.6 1016.6 0.0
24/05:30pm 16.7 13.7 6.2 50 5.1 NNE 11 13 6 7 1016.6 - 0.0
24/05:00pm 17.6 15.0 5.9 46 5.7 N 9 11 5 6 1016.7 - 0.0
24/04:30pm 19.3 16.7 6.1 42 6.5 N 9 13 5 7 1017.1 - 0.0
24/04:00pm 19.7 15.5 5.7 40 6.9 NNW 17 24 9 13 1017.0 - 0.0
24/03:30pm 20.2 16.5 6.2 40 7.0 NW 15 22 8 12 1017.2 - 0.0
24/03:00pm 20.2 16.1 6.2 40 7.0 NW 17 30 9 16 1017.5 1017.5 0.0
24/02:30pm 20.5 16.4 6.4 40 7.1 NNW 17 24 9 13 1017.8 - 0.0
24/02:00pm 20.5 16.2 6.8 41 6.9 NNW 19 30 10 16 1017.9 - 0.0
24/01:30pm 20.3 17.3 7.7 44 6.5 N 13 20 7 11 1018.3 - 0.0
24/01:00pm 19.2 16.8 10.2 56 4.8 NNE 13 20 7 11 1019.0 - 0.0
24/12:30pm 19.8 16.7 10.2 54 5.2 NNE 17 24 9 13 1019.6 - 0.0
24/12:00pm 18.6 15.5 10.4 59 4.4 NNE 17 22 9 12 1020.4 1020.4 0.0
24/11:30am 18.4 15.3 11.5 64 3.8 N 19 24 10 13 1020.9 - 0.0
24/11:00am 17.5 14.3 11.3 67 3.4 N 19 24 10 13 1021.6 - 0.0
24/10:30am 16.9 13.8 11.6 71 2.9 NNE 19 24 10 13 1022.2 - 0.0
24/10:00am 15.3 12.8 10.9 75 2.3 NNE 15 17 8 9 1022.7 - 0.0
24/09:30am 14.4 12.8 11.4 82 1.6 NNE 11 13 6 7 1023.0 - 0.0
24/09:00am 13.9 12.6 11.4 85 1.3 N 9 11 5 6 1023.1 1023.1 0.0
24/08:30am 12.5 10.6 10.6 88 1.0 N 11 13 6 7 1023.2 - 0.0
24/08:00am 11.8 9.8 10.0 89 0.9 N 11 13 6 7 1022.9 - 0.0
24/07:30am 11.3 9.9 9.6 89 0.9 N 7 11 4 6 1022.6 - 0.0
24/07:00am 10.8 8.1 9.1 89 0.8 N 13 15 7 8 1022.2 - 0.0
24/06:30am 10.8 8.6 9.2 90 0.8 N 11 13 6 7 1021.9 - 0.0
24/06:00am 11.1 9.3 9.5 90 0.8 N 9 13 5 7 1021.6 1021.7 0.0
24/05:30am 11.0 9.2 9.3 89 0.8 N 9 11 5 6 1021.5 - 0.0
24/05:00am 10.9 8.7 9.2 89 0.8 N 11 13 6 7 1021.4 - 0.0
24/04:30am 10.8 8.5 8.9 88 0.9 NNE 11 13 6 7 1021.3 - 0.0
24/04:00am 11.2 8.6 9.3 88 1.0 N 13 13 7 7 1021.5 - 0.0
24/03:30am 12.0 9.5 9.6 85 1.2 N 13 17 7 9 1021.4 - 0.0
24/03:00am 12.3 10.6 9.7 84 1.3 N 9 11 5 6 1021.7 1021.7 0.0
24/02:30am 12.6 10.6 10.1 85 1.3 NNW 11 13 6 7 1021.8 - 0.0
24/02:00am 12.5 10.8 10.0 85 1.3 N 9 9 5 5 1021.9 - 0.0
24/01:30am 12.7 12.7 9.9 83 1.4 CALM 0 0 0 0 1022.3 - 0.0
24/01:00am 13.0 13.2 10.4 84 1.3 CALM 0 0 0 0 1022.4 - 0.0
24/12:30am 12.3 12.3 9.9 85 1.2 CALM 0 0 0 0 1022.7 - 0.0
24/12:00am 12.8 10.7 9.8 82 1.5 W 11 13 6 7 1022.7 1022.6 0.0
 
Date/Time
CST
Tmp

°C
App
Tmp
°C
Dew
Point
°C
Rel
Hum
%
Delta-T

°C
Wind Press
QNH
hPa
Press
MSL
hPa
Rain
since
9 am
mm
Dir
 
Spd
km/h
Gust
km/h
Spd
kts
Gust
kts
23/11:30pm 12.8 11.7 9.8 82 1.5 WNW 6 7 3 4 1022.7 - 0.0
23/11:00pm 13.4 12.4 10.4 82 1.6 W 6 7 3 4 1022.7 - 0.0
23/10:30pm 13.0 11.9 9.8 81 1.6 W 6 9 3 5 1022.7 - 0.0
23/10:00pm 13.2 11.5 10.0 81 1.6 WNW 9 11 5 6 1023.2 - 0.0
23/09:30pm 13.5 11.5 10.1 80 1.8 NW 11 13 6 7 1023.3 - 0.0
23/09:00pm 13.6 11.2 10.2 80 1.8 WNW 13 15 7 8 1023.3 1023.3 0.0
23/08:30pm 14.1 11.8 10.5 79 1.9 WNW 13 17 7 9 1023.3 - 0.0
23/08:00pm 14.2 12.3 10.4 78 2.0 WNW 11 15 6 8 1023.3 - 0.0
23/07:30pm 14.8 11.7 10.4 75 2.3 W 17 20 9 11 1023.2 - 0.0
23/07:00pm 15.0 12.3 10.4 74 2.4 WNW 15 19 8 10 1023.0 - 0.0
23/06:30pm 14.8 12.8 10.0 73 2.5 WNW 11 15 6 8 1022.7 - 0.0
23/06:00pm 14.9 12.3 9.5 70 2.8 NW 13 15 7 8 1022.3 1022.3 0.0
23/05:30pm 15.8 12.9 9.5 66 3.3 WNW 15 20 8 11 1022.0 - 0.0
23/05:00pm 16.6 13.2 9.1 61 3.9 WNW 17 24 9 13 1021.9 - 0.0
23/04:30pm 17.3 12.1 8.7 57 4.4 W 26 37 14 20 1021.6 - 0.0
23/04:08pm 17.9 12.8 7.6 51 5.2 W 24 - 13 - - 1021.7 0.0
23/04:00pm 18.0 12.7 8.3 53 5.0 WNW 26 35 14 19 1021.6 - 0.0
23/03:30pm 18.5 13.3 8.7 53 5.1 W 26 35 14 19 1021.4 - 0.0
23/03:00pm 18.8 14.2 9.6 55 4.9 WNW 24 35 13 19 1021.0 - 0.0
23/02:30pm 18.6 13.6 9.7 56 4.7 W 26 35 14 19 1021.1 - 0.0
23/02:00pm 18.9 13.8 9.1 53 5.1 W 26 39 14 21 1021.2 - 0.0
23/01:30pm 18.5 12.5 8.7 53 5.1 W 30 43 16 23 1021.1 - 0.0
23/01:00pm 18.2 12.6 8.7 54 4.9 WNW 28 41 15 22 1021.1 - 0.0
23/12:30pm 18.1 12.2 8.9 55 4.8 W 30 41 16 22 1021.3 - 0.0
23/12:00pm 17.8 12.2 8.6 55 4.7 W 28 43 15 23 1021.4 - 0.0
23/11:30am 17.6 12.1 9.0 57 4.5 W 28 39 15 21 1021.7 - 0.0
23/11:00am 17.7 13.0 9.3 58 4.4 W 24 39 13 21 1022.1 - 0.0
23/10:30am 17.1 10.5 8.5 57 4.4 W 33 44 18 24 1022.2 - 0.0
23/10:00am 16.8 11.4 8.2 57 4.4 W 26 37 14 20 1022.3 - 0.0
23/09:30am 16.2 13.0 8.4 60 4.0 NW 15 26 8 14 1022.1 - 0.0
23/09:00am 14.6 11.5 7.4 62 3.5 NNW 13 17 7 9 1022.0 1022.0 1.8
23/08:30am 13.3 11.0 7.3 67 2.9 N 9 13 5 7 1021.8 - 1.8
23/08:00am 11.8 9.0 7.1 73 2.3 NW 11 13 6 7 1021.5 - 1.8
23/07:30am 11.5 8.7 6.8 73 2.2 NW 11 13 6 7 1021.4 - 1.8
23/07:00am 11.9 9.5 6.8 71 2.4 NW 9 13 5 7 1020.7 - 1.8
23/06:30am 12.4 9.3 7.3 71 2.5 W 13 19 7 10 1020.3 - 1.8
23/06:00am 12.9 8.6 6.9 67 2.9 W 19 26 10 14 1019.9 1019.8 1.8
23/05:30am 12.6 8.2 6.4 66 2.9 W 19 26 10 14 1019.6 - 1.8
23/05:00am 13.2 8.9 6.8 65 3.1 W 19 24 10 13 1019.4 - 1.8
23/04:30am 12.9 8.3 6.5 65 3.1 W 20 26 11 14 1019.1 - 1.8
23/04:00am 12.2 7.7 6.3 67 2.8 WNW 19 24 10 13 1018.6 - 1.8
23/03:30am 12.6 8.1 6.0 64 3.1 WNW 19 28 10 15 1018.2 - 1.8
23/03:00am 13.0 7.9 6.1 63 3.3 W 22 28 12 15 1018.0 1018.0 1.8
23/02:30am 13.4 6.8 6.0 61 3.5 W 30 41 16 22 1017.8 - 1.8
23/02:07am 13.8 7.3 6.4 61 3.5 W 30 48 16 26 1017.6 - 1.8
23/02:05am 13.8 7.3 6.4 61 3.5 W 30 48 16 26 1017.6 - 1.8
23/02:00am 13.8 6.9 6.4 61 3.5 W 32 48 17 26 1017.5 - 1.8
23/01:39am 13.9 7.8 6.5 61 3.6 W 28 48 15 26 1017.0 - 1.8
23/01:37am 13.9 7.8 6.5 61 3.6 W 28 48 15 26 1017.0 - 1.8
23/01:30am 13.4 9.0 7.4 67 2.9 W 20 30 11 16 1017.0 - 1.8
23/01:00am 13.7 7.9 8.1 69 2.8 W 28 39 15 21 1016.7 - 1.8
23/12:30am 14.2 7.9 7.3 63 3.4 W 30 43 16 23 1016.2 - 1.6
23/12:26am 14.2 7.4 7.0 62 3.5 WNW 32 50 17 27 1016.2 - 1.6
23/12:00am 14.3 6.3 5.7 56 4.1 WNW 37 54 20 29 1015.3 1015.2 1.6
 
Date/Time
CST
Tmp

°C
App
Tmp
°C
Dew
Point
°C
Rel
Hum
%
Delta-T

°C
Wind Press
QNH
hPa
Press
MSL
hPa
Rain
since
9 am
mm
Dir
 
Spd
km/h
Gust
km/h
Spd
kts
Gust
kts
22/11:30pm 15.0 5.7 7.5 61 3.7 WNW 46 69 25 37 1014.6 - 1.6
22/11:21pm 15.1 7.7 8.3 64 3.4 WNW 37 63 20 34 1014.4 - 1.6
22/11:07pm 15.0 8.4 8.5 65 3.3 WNW 33 52 18 28 1014.5 - 1.6
22/11:00pm 14.9 7.9 8.4 65 3.3 WNW 35 52 19 28 1014.5 - 1.6
22/10:41pm 14.8 7.0 8.3 65 3.3 WNW 39 61 21 33 1014.0 - 1.6
22/10:30pm 14.7 6.8 8.0 64 3.3 WNW 39 56 21 30 1013.7 - 1.6
22/10:10pm 15.0 6.3 7.8 62 3.6 WNW 43 61 23 33 1013.5 - 1.6
22/10:00pm 15.0 6.8 8.3 64 3.4 WNW 41 57 22 31 1013.1 - 1.6
22/09:35pm 15.2 8.6 8.4 64 3.4 WNW 33 61 18 33 1012.7 - 1.6
22/09:30pm 15.2 8.8 8.7 65 3.3 WNW 32 44 17 24 1012.6 - 1.6
22/09:06pm 15.1 9.1 8.6 65 3.3 WNW 30 48 16 26 1012.5 - 1.6
22/09:04pm 15.1 9.1 8.6 65 3.3 WNW 30 48 16 26 1012.5 - 1.6
22/09:00pm 15.0 9.0 8.5 65 3.3 WNW 30 46 16 25 1012.6 - 1.6
22/08:59pm 14.9 9.2 8.2 64 3.4 WNW 28 46 15 25 1012.5 - 1.6
22/08:30pm 15.4 8.8 8.4 63 3.5 WNW 33 46 18 25 1012.5 - 1.6
22/08:19pm 15.5 8.8 8.3 62 3.6 WNW 33 52 18 28 1012.4 - -
22/08:17pm 15.5 8.8 8.3 62 3.6 WNW 33 52 18 28 1012.4 - 1.6
22/08:00pm 15.3 9.3 8.8 65 3.3 WNW 30 43 16 23 1012.4 - 1.6
22/07:30pm 15.7 9.5 9.4 66 3.3 WNW 32 46 17 25 1012.1 - 1.6
22/07:29pm 15.6 9.4 9.3 66 3.2 WNW 32 46 17 25 1012.1 - 1.6
22/07:27pm 15.5 10.2 9.8 69 3.0 WNW 28 43 15 23 1011.9 - 1.6
22/07:00pm 15.1 11.9 11.1 77 2.1 NW 19 26 10 14 1011.8 - 1.6
22/06:30pm 15.1 12.0 11.5 79 1.9 NW 19 24 10 13 1011.5 - 1.6
22/06:00pm 14.7 10.5 11.1 79 1.9 W 24 35 13 19 1010.9 1011.0 1.6
22/05:30pm 15.2 10.2 11.0 76 2.2 NW 28 39 15 21 1010.6 - 1.2
22/05:22pm 15.5 10.4 10.7 73 2.5 NW 28 41 15 22 1010.6 - 1.2
22/05:12pm 15.4 10.3 10.6 73 2.5 WNW 28 46 15 25 1010.3 - 1.2
22/05:00pm 16.3 13.1 11.9 75 2.4 WNW 20 26 11 14 1010.1 - 1.2
22/04:30pm 17.1 15.7 12.2 73 2.7 NNW 11 20 6 11 1009.3 - 1.2
22/04:00pm 17.5 14.1 11.3 67 3.4 NNW 20 39 11 21 1008.9 - 1.2
22/03:30pm 17.8 15.0 11.4 66 3.5 N 17 24 9 13 1008.4 - 1.2
22/03:00pm 17.3 15.1 12.2 72 2.8 N 15 28 8 15 1008.1 1008.1 1.2
22/02:30pm 16.6 12.3 11.9 74 2.6 N 26 39 14 21 1007.8 - 1.2
22/02:00pm 16.3 12.3 11.7 74 2.5 N 24 41 13 22 1008.0 - 1.0
22/01:30pm 16.1 11.1 12.1 77 2.2 NNW 30 41 16 22 1008.3 - 1.0
22/01:00pm 16.7 12.5 12.3 75 2.4 NNW 26 44 14 24 1008.5 - 0.6
22/12:30pm 18.3 13.3 11.1 63 3.9 NW 28 39 15 21 1008.8 - 0.0
22/12:00pm 21.5 13.3 8.1 42 7.0 NW 41 65 22 35 1008.4 - 0.0
22/11:30am 22.6 13.9 6.0 34 8.4 NW 41 59 22 32 1008.4 - 0.0
22/11:00am 23.1 13.7 5.5 32 8.9 NNW 44 70 24 38 1008.0 - 0.0
22/10:36am 23.7 15.2 5.1 30 9.3 NNW 39 89 21 48 1007.5 - 0.0
22/10:34am 23.7 14.8 5.1 30 9.3 NNW 41 89 22 48 1007.5 - 0.0
22/10:30am 23.8 15.7 5.2 30 9.3 NNW 37 59 20 32 1007.8 - 0.0
22/10:00am 23.8 17.5 5.7 31 9.2 NNW 28 48 15 26 1007.8 - 0.0
22/09:57am 23.6 17.4 6.0 32 9.0 NNW 28 46 15 25 1007.8 - 0.0
22/09:55am 23.6 17.4 6.0 32 9.0 NNW 28 46 15 25 1007.8 - 0.0
22/09:54am 23.6 17.0 6.0 32 9.0 NNW 30 46 16 25 1007.8 - 0.0
22/09:30am 18.6 13.7 7.1 47 5.8 N 22 33 12 18 1007.4 - 0.0
22/09:00am 17.5 11.2 7.3 51 5.1 NNE 30 39 16 21 1007.6 1007.6 0.0
22/08:30am 16.6 9.9 7.3 54 4.6 NNE 32 41 17 22 1007.7 - 0.0
22/08:00am 15.0 8.2 7.1 59 3.9 NNE 32 43 17 23 1008.1 - 0.0
22/07:30am 13.6 8.0 7.2 65 3.1 NE 26 32 14 17 1008.2 - 0.0
22/07:00am 13.7 7.7 7.0 64 3.3 NE 28 35 15 19 1008.2 - 0.0
22/06:30am 13.8 7.4 7.1 64 3.3 NE 30 37 16 20 1008.3 - 0.0
22/06:00am 14.1 8.1 7.2 63 3.4 NE 28 35 15 19 1008.6 1008.6 0.0
22/05:30am 14.6 9.0 7.2 61 3.6 NNE 26 33 14 18 1008.9 - 0.0
22/05:00am 14.3 7.3 6.9 61 3.6 NE 33 41 18 22 1009.4 - 0.0
22/04:30am 14.4 7.6 7.0 61 3.6 NE 32 41 17 22 1009.9 - 0.0
22/04:00am 14.9 8.6 7.2 60 3.8 NE 30 37 16 20 1010.1 - 0.0
22/03:30am 15.4 9.5 7.4 59 4.0 NE 28 33 15 18 1010.3 - 0.0
22/03:00am 15.5 10.4 7.8 60 3.8 NNE 24 32 13 17 1011.2 - 0.0
22/02:30am 15.3 9.9 8.1 62 3.6 NNE 26 32 14 17 1011.5 - 0.0
22/02:00am 14.8 9.7 7.8 63 3.5 NE 24 32 13 17 1011.7 - 0.0
22/01:30am 15.1 10.0 7.6 61 3.7 NE 24 33 13 18 1012.1 - 0.0
22/01:00am 15.6 10.2 7.9 60 3.9 NE 26 33 14 18 1012.6 - 0.0
22/12:30am 15.5 10.1 7.8 60 3.8 NE 26 33 14 18 1012.7 - 0.0
22/12:00am 15.5 9.7 8.0 61 3.8 NE 28 35 15 19 1013.1 1013.1 0.0
 
Date/Time
CST
Tmp

°C
App
Tmp
°C
Dew
Point
°C
Rel
Hum
%
Delta-T

°C
Wind Press
QNH
hPa
Press
MSL
hPa
Rain
since
9 am
mm
Dir
 
Spd
km/h
Gust
km/h
Spd
kts
Gust
kts
21/11:30pm 15.6 10.3 8.4 62 3.6 NNE 26 32 14 17 1013.4 - 0.0

Latest Capital City Observations: Canberra | Sydney | Melbourne | Brisbane | Adelaide | Perth | Hobart | Darwin

Other Formats:

Comma delimited format used in spreadsheet applications
http://www.bom.gov.au/fwo/IDS60901/IDS60901.94677.axf

JavaScript Object Notation format (JSON) in row-major order
http://www.bom.gov.au/fwo/IDS60901/IDS60901.94677.json